KMCI/MCI METAR and TAF weather

Enter ICAO airport designator
Station Type Date Time Source
KMCI METAR 2019/02/22 23:53 UTC NOAA

KMCI 222353Z 10012KT 1 1/2SM -DZ BR OVC006 02/00 A3007 RMK AO2 TWR VIS 2 1/2 DZB47 CIG 004V008 SLP189 4/004 P0000 60000 T00170000 10022 20011 58010


Station Type Date Time Source
KMCI Decoded METAR 2019/02/22 23:53 UTC NOAA

KANSAS CITY INTERNATIONAL AIRPORT, MO, United States (KMCI) 39-18N 94-44W 320M
Feb 22, 2019 - 06:53 PM EST / 2019.02.22 2353 UTC
Wind: from the E (100 degrees) at 14 MPH (12 KT):0
Visibility: 1 1/2 mile(s):0
Sky conditions: overcast
Weather: light drizzle; mist; 4 inches of snow on ground
Precipitation last hour: A trace
Temperature: 35.1 F (1.7 C)
Dew Point: 32.0 F (0.0 C)
Relative Humidity: 88%
Pressure (altimeter): 30.07 in. Hg (1018 hPa)
Pressure tendency: 0.03 inches (1.0 hPa) lower than three hours ago
ob: KMCI 222353Z 10012KT 1 1/2SM -DZ BR OVC006 02/00 A3007 RMK AO2 TWR VIS 2 1/2 DZB47 CIG 004V008 SLP189 4/004 P0000 60000 T00170000 10022 20011 58010
cycle: 0

Station Type Date Time Source
KMCI TAF 2019/02/23 00:12 UTC NOAA

TAF
AMD KMCI 230008Z 2300/2324 10011KT 1 1/2SM -DZ BR OVC006
FM230300 11008KT 2SM -RA BR OVC004
FM231200 09010KT 2SM -DZ BR OVC003
FM231700 13011KT 3SM -RA BR OVC006
FM232100 22013G18KT 2SM RA BR SCT008 BKN030


Example: see airport list